Pagrindinis puslapis
METAR-TAF:

METAR-TAF

Oro uostai :

Vadsė, Norvegija

platuma: 70-04N, ilguma: 029-51E, Aukštis: 3 m

Dabartinis oras

Ataskaita buvo paskelbta 23 minutes, ne 13:20 UTC
Vėjas 11 kt iš Šiaurės/Šiaurės Rytų
Temperatūra -6°C
Drėgmė 68%
Slėgis 1005 hPa
Matomumas 10 km arba daugiau
Išsisklaidę debesys ne aukštis 1200 ft
Išsisklaidę debesys ne aukštis 5000 ft

METAR: ENVD 021320Z 03011KT 9999 SCT012 SCT050 M06/M11 Q1005

Laikas: 14:43 (13:43 UTC)

Prognozė

Ataskaita buvo paskelbta 2 valandos ir 43 minutes, ne 11:00 UTC
Prognozė galioja nuo 02 metu 12 UTC su 02 metu 21 UTC
Vėjas 15 kt iš Šiaurės Rytų
Matomumas 10 km arba daugiau
Išsisklaidę debesys ne aukštis 1000 ft
Su prošvaistėmis ne aukštis 2000 ft
sniegas
Laikinai
nuo 02 metu 12 UTC su 02 metu 21 UTC
Matomumas: 1000 m
ne aukštis 700 ft
sniegas, ledo ar sniego kruopos

TAF: ENVD 021100Z 0212/0221 05015KT 9999 -SHSN SCT010 BKN020 TEMPO 0212/0221 1000 SHSNGS VV007

Orai ataskaitas ir orų prognozės (METAR, TAF).

turimą stotys yra geltonos ir raudonos taškus žemėlapyje.

Perkelti pele per norėdami pamatyti stoties vardą.

Tada spustelėkite, norėdami matyti oro stebėjimo ir prognozės.

Norėdami pakeisti žemėlapį: spustelėkite ant žalios mygtukų su juodo kryžiaus žemyn,; žalią mygtuką su brūkšneliu, jei norite nutolinti; arba žalių rodyklių gretimoms žemėlapius.


METAR-TAF: